createdAt,value
2019-06-26T00:02:20.281Z,14.00
2019-06-26T00:04:47.657Z,9.30
2019-06-26T00:07:15.002Z,10.13
2019-06-26T00:09:42.399Z,9.90
2019-06-26T00:12:09.840Z,10.97
2019-06-26T00:14:38.822Z,11.17
2019-06-26T00:17:06.512Z,11.67
2019-06-26T00:19:33.924Z,11.73
2019-06-26T00:22:01.303Z,12.40
2019-06-26T00:24:28.700Z,13.10
2019-06-26T00:26:56.087Z,11.97
2019-06-26T00:29:23.508Z,13.93
2019-06-26T00:31:51.111Z,13.67
2019-06-26T00:34:18.486Z,13.33
2019-06-26T00:36:45.897Z,12.73
2019-06-26T00:39:13.285Z,13.03
2019-06-26T00:41:40.655Z,11.40
2019-06-26T00:44:08.023Z,12.13
2019-06-26T00:46:35.532Z,12.63
2019-06-26T00:49:03.136Z,13.03
2019-06-26T00:51:30.531Z,12.27
2019-06-26T00:53:58.043Z,13.10
2019-06-26T00:56:25.399Z,12.70
2019-06-26T00:58:52.826Z,12.90
2019-06-26T01:01:20.224Z,11.77
2019-06-26T01:03:49.954Z,11.77
2019-06-26T01:06:35.761Z,13.17
2019-06-26T01:09:04.466Z,11.63
2019-06-26T01:11:31.844Z,12.30
2019-06-26T01:13:59.254Z,11.37
2019-06-26T01:16:26.665Z,13.63
2019-06-26T01:18:53.999Z,10.90
2019-06-26T01:21:21.563Z,10.93
2019-06-26T01:23:48.929Z,11.40
2019-06-26T01:26:16.282Z,12.03
2019-06-26T01:28:43.691Z,11.40
2019-06-26T01:31:11.148Z,11.67
2019-06-26T01:33:38.494Z,12.00
2019-06-26T01:36:05.880Z,11.97
2019-06-26T01:38:33.293Z,12.57
2019-06-26T01:41:00.686Z,12.30
2019-06-26T01:43:28.079Z,11.77
2019-06-26T01:45:56.148Z,11.50
2019-06-26T01:48:23.545Z,11.87
2019-06-26T01:50:50.903Z,11.53
2019-06-26T01:53:18.302Z,12.40
2019-06-26T01:55:46.010Z,12.33
2019-06-26T01:58:13.446Z,13.53
2019-06-26T02:00:40.796Z,11.57
2019-06-26T02:03:08.174Z,12.73
2019-06-26T02:05:35.686Z,12.93
2019-06-26T02:08:03.079Z,13.90
2019-06-26T02:10:30.445Z,13.63
2019-06-26T02:12:57.835Z,13.27
2019-06-26T02:15:25.234Z,13.93
2019-06-26T02:17:52.638Z,12.73
2019-06-26T02:20:20.076Z,13.27
2019-06-26T02:22:49.673Z,12.93
2019-06-26T02:25:16.849Z,13.30
2019-06-26T02:27:44.366Z,13.50
2019-06-26T02:30:12.105Z,13.33
2019-06-26T02:32:39.491Z,13.13
2019-06-26T02:35:09.974Z,13.80
2019-06-26T02:37:37.005Z,15.73
2019-06-26T02:40:05.173Z,15.93
2019-06-26T02:42:32.563Z,16.27
2019-06-26T02:44:59.915Z,16.80
2019-06-26T02:47:27.333Z,15.23
2019-06-26T02:49:54.861Z,15.30
2019-06-26T02:52:22.281Z,14.07
2019-06-26T02:54:50.105Z,13.50
2019-06-26T02:57:17.797Z,14.37
2019-06-26T02:59:45.191Z,12.40
2019-06-26T03:02:12.656Z,13.20
2019-06-26T03:04:40.041Z,13.13
2019-06-26T03:07:07.535Z,14.13
2019-06-26T03:09:34.895Z,13.30
2019-06-26T03:12:02.268Z,14.80
2019-06-26T03:14:29.694Z,14.20
2019-06-26T03:16:57.074Z,12.60
2019-06-26T03:19:24.469Z,13.07
2019-06-26T03:21:51.955Z,12.87
2019-06-26T03:24:19.356Z,13.53
2019-06-26T03:26:46.750Z,12.53
2019-06-26T03:29:14.129Z,13.10
2019-06-26T03:31:41.527Z,12.13
2019-06-26T03:34:08.915Z,13.67
2019-06-26T03:36:36.264Z,13.53
2019-06-26T03:39:05.426Z,12.27
2019-06-26T03:41:32.932Z,14.70
2019-06-26T03:44:00.277Z,12.07
2019-06-26T03:46:27.730Z,12.57
2019-06-26T03:48:55.145Z,12.27
2019-06-26T03:51:22.496Z,12.70
2019-06-26T03:53:49.916Z,12.80
2019-06-26T03:56:17.292Z,12.53
2019-06-26T03:58:44.737Z,12.50
2019-06-26T04:01:12.165Z,12.10
2019-06-26T04:03:39.585Z,12.03
2019-06-26T04:06:06.955Z,12.27
2019-06-26T04:08:34.335Z,12.83
2019-06-26T04:11:01.718Z,13.53
2019-06-26T04:13:29.078Z,13.20
2019-06-26T04:15:56.496Z,12.03
2019-06-26T04:18:23.893Z,11.80
2019-06-26T04:20:51.404Z,12.83
2019-06-26T04:23:18.857Z,14.43
2019-06-26T04:25:46.261Z,13.27
2019-06-26T04:28:13.672Z,17.37
2019-06-26T04:30:41.207Z,14.60
2019-06-26T04:33:08.651Z,15.70
2019-06-26T04:35:36.103Z,13.43
2019-06-26T04:38:03.783Z,16.80
2019-06-26T04:40:31.134Z,12.83
2019-06-26T04:42:58.534Z,14.03
2019-06-26T04:45:25.884Z,13.23
2019-06-26T04:47:53.406Z,14.13
2019-06-26T04:50:21.126Z,13.80
2019-06-26T04:52:48.484Z,13.23
2019-06-26T04:55:15.996Z,12.80
2019-06-26T04:57:43.426Z,13.77
2019-06-26T05:00:11.471Z,13.57
2019-06-26T05:02:38.953Z,13.00
2019-06-26T05:05:08.165Z,15.00
2019-06-26T05:07:35.562Z,14.40
2019-06-26T05:10:03.311Z,13.67
2019-06-26T05:12:30.736Z,16.60
2019-06-26T05:14:58.176Z,14.07
2019-06-26T05:17:25.612Z,14.93
2019-06-26T05:19:53.004Z,12.43
2019-06-26T05:22:20.544Z,13.40
2019-06-26T05:24:47.935Z,12.70
2019-06-26T05:27:15.333Z,12.33
2019-06-26T05:29:42.720Z,13.10
2019-06-26T05:32:10.104Z,12.50
2019-06-26T05:34:37.570Z,13.10
2019-06-26T05:37:05.039Z,12.67
2019-06-26T05:39:32.459Z,14.00
2019-06-26T05:41:59.979Z,15.30
2019-06-26T05:44:27.409Z,12.83
2019-06-26T05:46:54.904Z,13.00
2019-06-26T05:49:22.476Z,13.60
2019-06-26T05:51:49.890Z,15.27
2019-06-26T05:54:17.305Z,13.83
2019-06-26T05:56:45.579Z,15.40
2019-06-26T05:59:13.112Z,13.60
2019-06-26T06:01:40.588Z,11.87
2019-06-26T06:04:08.009Z,12.20
2019-06-26T06:06:41.813Z,12.67
2019-06-26T06:09:05.891Z,12.33
2019-06-26T06:11:33.397Z,14.43
2019-06-26T06:14:00.806Z,12.20
2019-06-26T06:16:28.224Z,13.00
2019-06-26T06:18:55.620Z,11.60
2019-06-26T06:21:23.048Z,12.57
2019-06-26T06:23:50.451Z,12.37
2019-06-26T06:26:17.853Z,12.67
2019-06-26T06:28:45.263Z,12.30
2019-06-26T06:31:12.690Z,11.80
2019-06-26T06:33:40.093Z,12.57
2019-06-26T06:36:09.782Z,14.07
2019-06-26T06:38:36.910Z,10.53
2019-06-26T06:41:04.371Z,11.33
2019-06-26T06:43:31.782Z,10.93
2019-06-26T06:45:59.206Z,11.17
2019-06-26T06:48:26.621Z,13.83
2019-06-26T06:50:54.232Z,11.63
2019-06-26T06:53:21.620Z,12.17
2019-06-26T06:55:49.061Z,12.63
2019-06-26T06:58:16.466Z,12.87
2019-06-26T07:00:43.988Z,13.03
2019-06-26T07:03:11.492Z,12.77
2019-06-26T07:05:38.903Z,13.20
2019-06-26T07:08:06.294Z,13.53
2019-06-26T07:10:33.649Z,12.33
2019-06-26T07:13:01.052Z,13.20
2019-06-26T07:15:28.425Z,13.27
2019-06-26T07:17:55.936Z,12.77
2019-06-26T07:20:23.328Z,11.63
2019-06-26T07:22:50.714Z,13.33
2019-06-26T07:25:18.131Z,12.40
2019-06-26T07:27:45.508Z,13.33
2019-06-26T07:30:13.253Z,15.47
2019-06-26T07:32:40.668Z,13.63
2019-06-26T07:35:08.150Z,12.83
2019-06-26T07:37:35.519Z,12.83
2019-06-26T07:40:03.644Z,17.07
2019-06-26T07:42:31.046Z,10.80
2019-06-26T07:44:58.457Z,11.33
2019-06-26T07:47:41.964Z,17.07
2019-06-26T07:49:55.255Z,12.00
2019-06-26T07:52:22.725Z,11.23
2019-06-26T07:54:50.129Z,12.13
2019-06-26T07:57:17.541Z,10.13
2019-06-26T07:59:44.954Z,12.67
2019-06-26T08:02:12.371Z,12.27
2019-06-26T08:04:39.803Z,12.07
2019-06-26T08:07:07.223Z,12.60
2019-06-26T08:09:34.595Z,14.90
2019-06-26T08:12:02.065Z,11.50
2019-06-26T08:14:29.458Z,13.00
2019-06-26T08:16:56.827Z,16.23
2019-06-26T08:19:24.254Z,15.57
2019-06-26T08:21:51.639Z,14.37
2019-06-26T08:24:19.060Z,11.80
2019-06-26T08:26:46.395Z,11.00
2019-06-26T08:29:13.868Z,13.13
2019-06-26T08:31:41.285Z,10.87
2019-06-26T08:34:08.760Z,11.40
2019-06-26T08:36:36.157Z,12.93
2019-06-26T08:39:05.296Z,10.50
2019-06-26T08:41:32.682Z,16.47
2019-06-26T08:44:00.126Z,14.37
2019-06-26T08:46:27.457Z,10.40
2019-06-26T08:48:54.852Z,11.43
2019-06-26T08:51:22.620Z,10.90
2019-06-26T08:53:49.995Z,11.57
2019-06-26T08:56:17.386Z,12.57
2019-06-26T08:58:44.785Z,10.40
2019-06-26T09:01:12.141Z,11.27
2019-06-26T09:03:42.005Z,10.97
2019-06-26T09:06:08.834Z,14.40
2019-06-26T09:08:36.312Z,18.43
2019-06-26T09:11:03.855Z,15.30
2019-06-26T09:13:31.286Z,13.67
2019-06-26T09:15:58.732Z,15.03
2019-06-26T09:18:35.497Z,12.23
2019-06-26T09:20:55.531Z,12.23
2019-06-26T09:23:23.031Z,10.97
2019-06-26T09:25:50.399Z,10.93
2019-06-26T09:28:17.830Z,10.47
2019-06-26T09:30:45.251Z,11.40
2019-06-26T09:33:12.686Z,11.73
2019-06-26T09:35:40.023Z,11.93
2019-06-26T09:38:07.474Z,10.77
2019-06-26T09:40:34.874Z,10.83
2019-06-26T09:43:02.280Z,14.07
2019-06-26T09:45:29.695Z,11.20
2019-06-26T09:47:57.129Z,11.43
2019-06-26T09:50:25.045Z,11.27
2019-06-26T09:52:52.512Z,11.40
2019-06-26T09:55:19.988Z,9.83
2019-06-26T09:57:47.437Z,10.17
2019-06-26T10:00:16.397Z,9.20
2019-06-26T10:02:43.785Z,10.80
2019-06-26T10:05:11.735Z,13.27
2019-06-26T10:07:39.122Z,11.30
2019-06-26T10:10:06.959Z,10.03
2019-06-26T10:12:34.453Z,11.37
2019-06-26T10:15:02.017Z,12.63
2019-06-26T10:17:29.468Z,9.57
2019-06-26T10:19:56.948Z,10.03
2019-06-26T10:22:24.329Z,9.47
2019-06-26T10:24:51.942Z,9.37
2019-06-26T10:27:19.305Z,10.07
2019-06-26T10:29:46.728Z,12.03
2019-06-26T10:32:14.146Z,9.73
2019-06-26T10:34:41.608Z,8.97
2019-06-26T10:37:08.988Z,9.30
2019-06-26T10:39:36.407Z,8.90
2019-06-26T10:42:03.982Z,9.90
2019-06-26T10:44:31.549Z,9.33
2019-06-26T10:46:58.979Z,8.70
2019-06-26T10:49:27.914Z,11.70
2019-06-26T10:51:55.642Z,10.20
2019-06-26T10:54:23.049Z,9.17
2019-06-26T10:56:50.389Z,8.90
2019-06-26T10:59:17.781Z,11.27
2019-06-26T11:01:45.260Z,10.97
2019-06-26T11:04:12.676Z,10.17
2019-06-26T11:06:40.173Z,13.07
2019-06-26T11:09:07.777Z,8.50
2019-06-26T11:11:35.435Z,8.13
2019-06-26T11:14:03.100Z,8.20
2019-06-26T11:16:30.600Z,9.30
2019-06-26T11:18:58.120Z,9.00
2019-06-26T11:21:25.482Z,8.57
2019-06-26T11:23:52.872Z,8.43
2019-06-26T11:26:20.296Z,8.77
2019-06-26T11:28:47.742Z,7.80
2019-06-26T11:31:15.276Z,8.90
2019-06-26T11:33:42.789Z,10.03
2019-06-26T11:36:10.254Z,8.27
2019-06-26T11:38:37.625Z,9.47
2019-06-26T11:41:05.054Z,9.20
2019-06-26T11:43:32.547Z,10.97
2019-06-26T11:46:00.026Z,8.23
2019-06-26T11:48:27.433Z,8.93
2019-06-26T11:50:55.001Z,10.87
2019-06-26T11:53:22.451Z,9.37
2019-06-26T11:55:49.823Z,10.73
2019-06-26T11:58:17.239Z,9.33
2019-06-26T12:00:44.656Z,10.20
2019-06-26T12:03:13.330Z,8.20
2019-06-26T12:05:41.076Z,9.03
2019-06-26T12:08:08.627Z,8.87
2019-06-26T12:10:36.002Z,8.40
2019-06-26T12:13:04.387Z,9.93
2019-06-26T12:15:32.096Z,10.23
2019-06-26T12:17:59.629Z,8.67
2019-06-26T12:20:27.052Z,8.90
2019-06-26T12:22:54.512Z,9.53
2019-06-26T12:25:22.117Z,8.80
2019-06-26T12:27:49.520Z,7.57
2019-06-26T12:30:16.999Z,11.87
2019-06-26T12:33:01.578Z,10.40
2019-06-26T12:35:14.597Z,7.40
2019-06-26T12:37:42.112Z,10.40
2019-06-26T12:40:09.894Z,9.13
2019-06-26T12:42:37.332Z,8.57
2019-06-26T12:45:05.591Z,9.03
2019-06-26T12:47:33.114Z,8.67
2019-06-26T12:50:01.037Z,8.83
2019-06-26T12:52:28.529Z,8.57
2019-06-26T12:54:55.922Z,8.23
2019-06-26T12:57:23.327Z,8.37
2019-06-26T12:59:57.416Z,8.53
2019-06-26T13:02:20.089Z,10.40
2019-06-26T13:04:47.523Z,7.77
2019-06-26T13:07:14.910Z,8.10
2019-06-26T13:09:42.369Z,7.47
2019-06-26T13:12:09.830Z,8.07
2019-06-26T13:14:37.261Z,8.83
2019-06-26T13:17:04.761Z,8.27
2019-06-26T13:19:32.201Z,9.23
2019-06-26T13:21:59.805Z,8.03
2019-06-26T13:24:27.243Z,6.97
2019-06-26T13:26:54.784Z,8.57
2019-06-26T13:29:22.310Z,8.30
2019-06-26T13:31:49.855Z,7.80
2019-06-26T13:34:17.242Z,10.20
2019-06-26T13:36:44.642Z,7.67
2019-06-26T13:39:11.994Z,7.70
2019-06-26T13:41:39.466Z,8.60
2019-06-26T13:44:06.885Z,7.30
2019-06-26T13:46:34.247Z,7.00
2019-06-26T13:49:01.734Z,7.80
2019-06-26T13:51:29.242Z,7.83
2019-06-26T13:53:56.576Z,6.93
2019-06-26T13:56:24.003Z,7.80
2019-06-26T13:58:51.472Z,6.50
2019-06-26T14:01:18.856Z,7.87
2019-06-26T14:03:46.266Z,7.23
2019-06-26T14:06:13.674Z,8.27
2019-06-26T14:08:41.049Z,7.43
2019-06-26T14:11:08.452Z,7.30
2019-06-26T14:13:35.922Z,7.47
2019-06-26T14:16:03.593Z,7.43
2019-06-26T14:18:30.995Z,7.77
2019-06-26T14:20:58.451Z,10.13
2019-06-26T14:23:25.814Z,7.50
2019-06-26T14:25:53.288Z,7.00
2019-06-26T14:28:20.669Z,6.27
2019-06-26T14:30:48.092Z,7.80
2019-06-26T14:33:15.528Z,8.30
2019-06-26T14:35:42.973Z,8.67
2019-06-26T14:38:10.642Z,8.53
2019-06-26T14:40:38.050Z,10.93
2019-06-26T14:43:05.467Z,9.00
2019-06-26T14:45:32.880Z,9.73
2019-06-26T14:48:00.310Z,8.67
2019-06-26T14:50:27.777Z,8.03
2019-06-26T14:52:55.404Z,8.17
2019-06-26T14:55:22.828Z,8.37
2019-06-26T14:57:50.292Z,7.37
2019-06-26T15:00:17.799Z,9.57
2019-06-26T15:02:45.372Z,8.90
2019-06-26T15:05:13.641Z,7.07
2019-06-26T15:07:41.040Z,8.00
2019-06-26T15:10:09.000Z,8.40
2019-06-26T15:12:36.520Z,8.30
2019-06-26T15:15:04.383Z,11.00
2019-06-26T15:17:31.791Z,8.17
2019-06-26T15:19:59.215Z,8.20
2019-06-26T15:22:26.608Z,8.13
2019-06-26T15:24:54.062Z,9.23
2019-06-26T15:27:21.492Z,7.90
2019-06-26T15:29:48.960Z,7.83
2019-06-26T15:32:16.390Z,8.10
2019-06-26T15:34:43.871Z,7.87
2019-06-26T15:37:11.312Z,10.27
2019-06-26T15:39:38.734Z,8.70
2019-06-26T15:42:06.178Z,7.37
2019-06-26T15:44:33.635Z,7.77
2019-06-26T15:47:01.051Z,7.97
2019-06-26T15:49:28.456Z,12.53
2019-06-26T15:51:56.130Z,8.67
2019-06-26T15:54:23.526Z,7.73
2019-06-26T15:56:50.986Z,8.23
2019-06-26T15:59:18.436Z,7.57
2019-06-26T16:01:46.003Z,11.67
2019-06-26T16:04:13.385Z,8.80
2019-06-26T16:06:40.815Z,9.53
2019-06-26T16:09:08.222Z,7.50
2019-06-26T16:11:35.655Z,7.67
2019-06-26T16:14:03.449Z,8.07
2019-06-26T16:16:31.940Z,7.87
2019-06-26T16:19:04.315Z,10.90
2019-06-26T16:21:31.713Z,9.10
2019-06-26T16:23:59.289Z,7.87
2019-06-26T16:26:26.731Z,8.73
2019-06-26T16:28:54.148Z,9.40
2019-06-26T16:31:21.487Z,9.53
2019-06-26T16:33:48.895Z,8.73
2019-06-26T16:36:16.325Z,8.80
2019-06-26T16:38:43.732Z,8.50
2019-06-26T16:41:11.170Z,11.27
2019-06-26T16:43:38.560Z,8.40
2019-06-26T16:46:05.999Z,10.60
2019-06-26T16:48:33.435Z,9.77
2019-06-26T16:51:00.884Z,9.03
2019-06-26T16:53:28.318Z,8.70
2019-06-26T16:55:55.756Z,10.00
2019-06-26T16:58:23.486Z,9.37
2019-06-26T17:00:50.874Z,10.10
2019-06-26T17:03:18.316Z,9.20
2019-06-26T17:05:45.728Z,9.53
2019-06-26T17:08:13.190Z,10.77
2019-06-26T17:10:40.589Z,9.37
2019-06-26T17:13:07.989Z,10.20
2019-06-26T17:15:35.382Z,9.17
2019-06-26T17:18:02.825Z,9.60
2019-06-26T17:20:30.429Z,9.30
2019-06-26T17:23:05.809Z,9.77
2019-06-26T17:25:27.151Z,9.90
2019-06-26T17:27:54.656Z,10.67
2019-06-26T17:30:22.190Z,10.07
2019-06-26T17:32:49.639Z,10.43
2019-06-26T17:35:17.167Z,10.17
2019-06-26T17:37:44.626Z,10.83
2019-06-26T17:40:13.389Z,11.80
2019-06-26T17:42:40.873Z,10.50
2019-06-26T17:45:08.446Z,11.77
2019-06-26T17:47:35.845Z,11.33
2019-06-26T17:50:04.527Z,10.80
2019-06-26T17:52:35.644Z,10.93
2019-06-26T17:55:01.504Z,10.97
2019-06-26T17:57:28.928Z,11.40
2019-06-26T17:59:56.398Z,11.83
2019-06-26T18:02:23.829Z,11.90
2019-06-26T18:04:51.216Z,13.00
2019-06-26T18:07:18.648Z,11.77
2019-06-26T18:09:46.055Z,11.83
2019-06-26T18:12:13.455Z,11.40
2019-06-26T18:14:43.186Z,11.07
2019-06-26T18:17:21.501Z,12.17
2019-06-26T18:19:39.626Z,10.70
2019-06-26T18:22:07.028Z,13.40
2019-06-26T18:24:34.384Z,11.03
2019-06-26T18:27:01.806Z,11.80
2019-06-26T18:29:29.214Z,12.70
2019-06-26T18:31:56.574Z,12.07
2019-06-26T18:34:23.983Z,11.23
2019-06-26T18:36:51.375Z,12.17
2019-06-26T18:39:18.833Z,11.80
2019-06-26T18:41:46.711Z,12.73
2019-06-26T18:44:14.107Z,11.13
2019-06-26T18:46:41.453Z,11.27
2019-06-26T18:49:09.040Z,11.83
2019-06-26T18:51:36.459Z,11.33
2019-06-26T18:54:04.367Z,11.47
2019-06-26T18:56:31.882Z,12.87
2019-06-26T18:58:59.273Z,12.77
2019-06-26T19:01:26.673Z,14.13
2019-06-26T19:03:54.258Z,12.50
2019-06-26T19:06:21.753Z,13.70
2019-06-26T19:08:49.152Z,13.67
2019-06-26T19:11:16.571Z,13.13
2019-06-26T19:13:43.948Z,14.20
2019-06-26T19:16:11.405Z,27.73
2019-06-26T19:18:38.795Z,23.77
2019-06-26T19:21:06.130Z,19.40
2019-06-26T19:23:33.543Z,21.10
2019-06-26T19:26:00.930Z,15.33
2019-06-26T19:28:28.402Z,12.77
2019-06-26T19:30:55.806Z,12.97
2019-06-26T19:33:23.199Z,13.97
2019-06-26T19:35:50.561Z,12.37
2019-06-26T19:38:17.949Z,12.63
2019-06-26T19:40:45.311Z,12.47
2019-06-26T19:43:12.745Z,11.93
2019-06-26T19:45:40.190Z,15.27
2019-06-26T19:48:07.690Z,10.40
2019-06-26T19:50:35.435Z,9.60
2019-06-26T19:53:02.927Z,12.30
2019-06-26T19:55:30.392Z,9.93
2019-06-26T19:57:57.766Z,9.83
2019-06-26T20:00:25.426Z,9.63
2019-06-26T20:02:52.859Z,10.50
2019-06-26T20:05:20.526Z,10.17
2019-06-26T20:07:47.943Z,10.13
2019-06-26T20:10:15.722Z,10.03
2019-06-26T20:12:43.140Z,11.80
2019-06-26T20:15:10.784Z,12.83
2019-06-26T20:17:38.227Z,10.73
2019-06-26T20:20:05.904Z,9.70
2019-06-26T20:22:33.325Z,10.20
2019-06-26T20:25:00.724Z,10.07
2019-06-26T20:27:28.127Z,10.50
2019-06-26T20:29:55.505Z,10.30
2019-06-26T20:32:24.181Z,10.47
2019-06-26T20:34:51.713Z,10.53
2019-06-26T20:37:19.132Z,11.10
2019-06-26T20:39:46.501Z,12.03
2019-06-26T20:42:13.945Z,16.13
2019-06-26T20:44:41.339Z,12.17
2019-06-26T20:47:08.739Z,13.13
2019-06-26T20:49:51.970Z,13.63
2019-06-26T20:52:05.512Z,16.37
2019-06-26T20:54:33.014Z,13.50
2019-06-26T20:57:00.889Z,11.77
2019-06-26T20:59:28.280Z,10.93
2019-06-26T21:01:55.672Z,10.10
2019-06-26T21:04:23.055Z,9.63
2019-06-26T21:06:50.467Z,11.37
2019-06-26T21:09:18.146Z,10.73
2019-06-26T21:11:45.574Z,10.03
2019-06-26T21:14:13.112Z,12.07
2019-06-26T21:16:40.465Z,12.37
2019-06-26T21:19:07.926Z,12.40
2019-06-26T21:21:35.292Z,12.80
2019-06-26T21:24:02.678Z,14.13
2019-06-26T21:26:30.092Z,13.07
2019-06-26T21:29:00.692Z,12.30
2019-06-26T21:31:26.876Z,12.43
2019-06-26T21:33:54.269Z,14.23
2019-06-26T21:36:21.631Z,13.57
2019-06-26T21:38:49.020Z,12.90
2019-06-26T21:41:16.515Z,13.63
2019-06-26T21:43:43.910Z,13.93
2019-06-26T21:46:11.335Z,13.13
2019-06-26T21:48:38.735Z,13.97
2019-06-26T21:51:06.237Z,13.17
2019-06-26T21:53:33.826Z,13.53
2019-06-26T21:56:01.221Z,14.97
2019-06-26T21:58:28.619Z,13.93
2019-06-26T22:00:56.305Z,13.83
2019-06-26T22:03:23.958Z,35.33
2019-06-26T22:05:51.369Z,25.10
2019-06-26T22:08:18.796Z,35.40
2019-06-26T22:10:46.264Z,53.60
2019-06-26T22:13:13.709Z,49.10
2019-06-26T22:15:41.113Z,65.50
2019-06-26T22:18:08.629Z,34.37
2019-06-26T22:20:35.993Z,26.33
2019-06-26T22:23:03.371Z,29.23
2019-06-26T22:25:30.779Z,39.93
2019-06-26T22:27:58.283Z,42.37
2019-06-26T22:30:26.065Z,44.63
2019-06-26T22:32:53.443Z,27.17
2019-06-26T22:35:20.924Z,32.53
2019-06-26T22:37:48.313Z,50.13
2019-06-26T22:40:15.985Z,37.70
2019-06-26T22:42:43.390Z,37.57
2019-06-26T22:45:11.202Z,39.63
2019-06-26T22:47:38.589Z,33.87
2019-06-26T22:50:06.347Z,32.33
2019-06-26T22:52:33.740Z,32.13
2019-06-26T22:55:01.225Z,29.83
2019-06-26T22:57:28.620Z,28.17
2019-06-26T22:59:56.089Z,30.93
2019-06-26T23:02:23.484Z,30.73
2019-06-26T23:04:50.880Z,26.30
2019-06-26T23:07:18.285Z,25.20
2019-06-26T23:09:45.666Z,25.73
2019-06-26T23:12:13.123Z,25.57
2019-06-26T23:14:40.533Z,18.27
2019-06-26T23:17:07.938Z,16.40
2019-06-26T23:19:35.409Z,15.80
2019-06-26T23:22:02.815Z,16.20
2019-06-26T23:24:30.174Z,18.07
2019-06-26T23:26:57.574Z,18.23
2019-06-26T23:29:24.964Z,18.83
2019-06-26T23:31:52.353Z,17.23
2019-06-26T23:34:19.759Z,17.90
2019-06-26T23:36:47.163Z,18.50
2019-06-26T23:39:14.562Z,17.90
2019-06-26T23:41:41.952Z,18.80
2019-06-26T23:44:09.371Z,18.70
2019-06-26T23:46:36.751Z,18.63
2019-06-26T23:49:04.246Z,18.70
2019-06-26T23:51:31.645Z,19.40
2019-06-26T23:53:59.530Z,19.07
2019-06-26T23:56:39.971Z,19.87
2019-06-26T23:58:56.445Z,17.17
